Spring Creek, Nevada
Current Conditions -  °F | °C
As of 5:56 PM on Friday 24 Oct 2014 (Local Time) from KEKO Reporting Station
Clear Clear  
Wind Chill: 72°   Ceiling: Unl
Heat Index: 72°   Visibility: 10mi
Dew Point: 22°   Wind: 9mph
Humidity: 15%   Direction: 150°SSE
Pressure: 30.01"   Gusts: NA
Location:  40.77°N, 115.64°W
Report Text: KEKO 250056Z AUTO 15008KT 10SM CLR 22/M06 A3001 RMK AO2 SLP135 T02221056
Loading
Personal Weather Stations






























Interactive Weather Map
Tropical Storm Tracking
New forecast layout! Learn more

10-Day Weather Forecast

Advertisements
Track Severe Weather on mobile